Flight Track Log - Related Links

Times and Time Zones

All times are in EDT time to prevent confusion due to time zone crossing. See the ASH3745 flight status page for this flight to view local times or setup timezone preferences in your user account.

Time Position Orientation Groundspeed Altitude Reporting Facility
EDT Latitude Longitude Course Direction KTS MPH feet Rate Location/Type
Sun 08:57:51 PM 33.6667 -84.5167 323° Northwest 227 261 3,400  Level Atlanta TRACON
Sun 08:58:51 PM 33.7167 -84.5833 312° West 300 345 5,600 2,550 Climbing Atlanta TRACON
Sun 08:59:51 PM 33.8000 -84.5833 360° North 298 343 8,500 2,754 Climbing Atlanta TRACON
Sun 09:00:53 PM 33.8767 -84.5817 North 293 337 11,200 2,115 Climbing Atlanta Center
Sun 09:01:53 PM 33.9747 -84.5850 358° North 313 360 12,800 1,750 Climbing Atlanta Center
Sun 09:02:53 PM 34.0728 -84.5906 357° North 330 380 14,700 1,950 Climbing Atlanta Center
Sun 09:03:00 PM 34.1393 -84.4523 323° Northwest  Level FlightAware Approximate
Sun 09:03:53 PM 34.1769 -84.5911 360° North 357 411 16,700  Level Atlanta Center
Sun 09:04:53 PM 34.2836 -84.5944 359° North 369 425 18,500 1,750 Climbing Atlanta Center
Sun 09:05:53 PM 34.3900 -84.6028 356° North 380 437 20,200 1,500 Climbing Atlanta Center
Sun 09:06:53 PM 34.4858 -84.6133 355° North 392 451 21,500 1,300 Climbing Atlanta Center
Sun 09:07:53 PM 34.6028 -84.6217 357° North 397 457 22,800 1,300 Climbing Atlanta Center
Sun 09:08:53 PM 34.7258 -84.6353 355° North 402 463 24,100 1,250 Climbing Atlanta Center
Sun 09:09:53 PM 34.8425 -84.6436 357° North 412 474 25,300 1,200 Climbing Atlanta Center
Sun 09:10:53 PM 34.9594 -84.6547 356° North 417 480 26,500 1,200 Climbing Atlanta Center
Sun 09:11:53 PM 35.0783 -84.6631 357° North 422 486 27,700 1,200 Climbing Atlanta Center
Sun 09:12:53 PM 35.1992 -84.6742 356° North 422 486 28,900 1,050 Climbing Atlanta Center
Sun 09:13:53 PM 35.3161 -84.6828 357° North 422 486 29,800 850 Climbing Atlanta Center
Sun 09:14:53 PM 35.4392 -84.6939 356° North 427 491 30,600 800 Climbing Atlanta Center
Sun 09:15:53 PM 35.5600 -84.7050 356° North 427 491 31,400 700 Climbing Atlanta Center
Sun 09:16:53 PM 35.6808 -84.7136 357° North 432 497 32,000 300 Climbing Atlanta Center
Sun 09:17:53 PM 35.8103 -84.7250 356° North 439 505 32,000  Level Atlanta Center
Sun 09:20:20 PM 36.1217 -84.7525 356° North 487 560 32,000  Level Indianapolis Center
Sun 09:21:21 PM 36.2567 -84.7647 356° North 487 560 32,000  Level Indianapolis Center
Sun 09:22:22 PM 36.4206 -84.7767 357° North 488 562 32,000  Level Indianapolis Center
Sun 09:23:23 PM 36.5572 -84.7403 12° North 501 577 32,000  Level Indianapolis Center
Sun 09:24:24 PM 36.6939 -84.7006 13° North 501 577 32,000  Level Indianapolis Center
Sun 09:25:25 PM 36.8308 -84.6600 13° North 502 578 32,000  Level Indianapolis Center
Sun 09:26:27 PM 36.9672 -84.6192 13° North 503 579 32,000  Level Indianapolis Center
Sun 09:27:28 PM 37.1092 -84.5772 13° North 501 577 32,000  Level Indianapolis Center
Sun 09:28:29 PM 37.2436 -84.5361 14° North 498 573 32,000  Level Indianapolis Center
Sun 09:29:30 PM 37.3786 -84.4972 13° North 497 572 32,000  Level Indianapolis Center
Sun 09:30:31 PM 37.5131 -84.4567 13° North 496 571 32,000  Level Indianapolis Center
Sun 09:31:32 PM 37.6481 -84.4147 14° North 496 571 32,000 98 Level Indianapolis Center
Sun 09:32:33 PM 37.7842 -84.4097 North 493 567 32,200 639 Climbing Indianapolis Center
Sun 09:33:34 PM 37.9094 -84.4594 343° North 473 544 33,300 885 Climbing Indianapolis Center
Sun 09:34:35 PM 38.0286 -84.5142 340° North 464 534 34,000 341 Climbing Indianapolis Center
Sun 09:35:37 PM 38.1500 -84.5703 340° North 461 531 34,000  Level Indianapolis Center
Sun 09:36:38 PM 38.2864 -84.6294 341° North 450 518 34,000  Level Indianapolis Center
Sun 09:37:39 PM 38.3953 -84.6811 340° North 426 490 34,000  Level Indianapolis Center
Sun 09:38:40 PM 38.5072 -84.7344 340° North 426 490 34,000  Level Indianapolis Center
Sun 09:39:41 PM 38.6197 -84.7872 340° North 427 491 34,000  Level Indianapolis Center
Sun 09:40:42 PM 38.7414 -84.8431 340° North 437 503 34,000 -541 Level Indianapolis Center
Sun 09:41:43 PM 38.8542 -84.8950 340° North 437 503 32,900 -1,082 Descending Indianapolis Center
Sun 09:42:44 PM 38.9614 -84.9458 340° North 421 484 31,800 -1,082 Descending Indianapolis Center
Sun 09:43:45 PM 39.0675 -84.9947 340° North 412 474 30,700 -1,082 Descending Indianapolis Center
Sun 09:44:46 PM 39.1733 -85.0444 340° North 410 472 29,600 -1,082 Descending Indianapolis Center
Sun 09:45:47 PM 39.2778 -85.0944 340° North 408 470 28,500 -787 Descending Indianapolis Center
Sun 09:46:48 PM 39.3844 -85.1450 340° North 407 468 28,000 -246 Descending Indianapolis Center
Sun 09:47:49 PM 39.4917 -85.1958 340° North 408 470 28,000  Level Indianapolis Center
Sun 09:48:50 PM 39.6031 -85.2492 340° North 420 483 28,000  Level Indianapolis Center
Sun 09:49:51 PM 39.7206 -85.3053 340° North 439 505 28,000 -590 Level Indianapolis Center
Sun 09:50:52 PM 39.8642 -85.3728 340° North 453 521 26,800 -984 Descending Indianapolis Center
Sun 09:51:53 PM 39.9808 -85.4283 340° North 454 522 26,000 -397 Descending Indianapolis Center
Sun 09:52:53 PM 40.0967 -85.4847 340° North 451 519 26,000 -50 Level Indianapolis Center
Sun 09:53:54 PM 40.2128 -85.5414 340° North 450 518 25,900 -492 Descending Indianapolis Center
Sun 09:54:55 PM 40.3294 -85.5994 339° North 450 518 25,000 -915 Descending Indianapolis Center
Sun 09:55:52 PM 40.4342 -85.6686 333° Northwest 439 505 24,100 -508 Descending Chicago Center
Sun 09:56:53 PM 40.5072 -85.7872 309° West 426 490 24,000 -146 Descending Chicago Center
Sun 09:57:55 PM 40.5811 -85.9053 310° West 421 484 23,800 -537 Descending Chicago Center
Sun 09:58:56 PM 40.6572 -86.0247 310° West 425 489 22,900 -878 Descending Chicago Center
Sun 09:59:58 PM 40.7383 -86.1583 309° West 425 489 22,000 -435 Descending Chicago Center
Sun 10:01:00 PM 40.8119 -86.2794 309° West 424 488 22,000  Level Chicago Center
Sun 10:02:01 PM 40.8861 -86.3989 309° West 421 484 22,000 -780 Level Chicago Center
Sun 10:03:03 PM 40.9575 -86.5181 308° West 418 481 20,400 -1,694 Descending Chicago Center
Sun 10:04:05 PM 41.0292 -86.6361 309° West 413 475 18,500 -2,000 Descending Chicago Center
Sun 10:05:06 PM 41.1136 -86.7722 309° West 409 471 16,300 -2,000 Descending Chicago Center
Sun 10:06:08 PM 41.1822 -86.8856 309° West 394 453 14,400 -1,854 Descending Chicago Center
Sun 10:07:09 PM 41.2500 -86.9975 309° West 388 447 12,500 -1,610 Descending Chicago Center
Sun 10:08:11 PM 41.3169 -87.1122 308° West 366 421 11,100 -683 Descending Chicago Center
Sun 10:09:12 PM 41.3831 -87.2142 311° West 362 417 11,100 -49 Level Chicago Center
Sun 10:10:14 PM 41.4600 -87.3056 318° Northwest 368 423 11,000 -49 Descending Chicago Center
Sun 10:11:15 PM 41.5447 -87.3956 322° Northwest 363 418 11,000 49 Level Chicago Center
Sun 10:12:17 PM 41.6292 -87.4722 326° Northwest 366 421 11,100 -98 Climbing Chicago Center
Sun 10:13:18 PM 41.7094 -87.5578 322° Northwest 368 423 10,800 -639 Descending Chicago Center
Sun 10:14:19 PM 41.7828 -87.6406 320° Northwest 321 369 9,800 -976 Descending Chicago Center
Sun 10:15:21 PM 41.8428 -87.7189 316° Northwest 306 352 8,800 -829 Descending Chicago Center
Sun 10:16:22 PM 41.8828 -87.8064 302° West 273 314 8,100 -787 Descending Chicago Center
Sun 10:17:23 PM 41.8831 -87.9000 270° West 236 272 7,200 -634 Descending Chicago Center
Sun 10:18:25 PM 41.8842 -87.9889 271° West 236 272 6,800 -829 Descending Chicago Center
Sun 10:19:26 PM 41.8842 -88.0747 270° West 235 270 5,500 -1,230 Descending Chicago Center
Sun 10:20:27 PM 41.8842 -88.1594 270° West 232 267 4,300 -683 Descending Chicago Center
Sun 10:21:29 PM 41.8836 -88.2369 269° West 190 219 4,100 -98 Descending Chicago Center
Sun 10:22:30 PM 41.9250 -88.2631 335° Northwest 209 241 4,100  Level Chicago Center
Sun 10:23:31 PM 41.9456 -88.1997 66° East 188 216 4,100 -197 Level Chicago Center
Sun 10:24:32 PM 41.9642 -88.1364 68° East 186 214 3,700 -639 Descending Chicago Center
Sun 10:25:33 PM 41.9636 -88.0750 91° East 152 175 2,800 -780 Descending Chicago Center
Sun 10:26:35 PM 41.9650 -88.0222 88° East 145 167 2,100 -634 Descending Chicago Center
Sun 10:27:36 PM 41.9639 -87.9819 92° East 114 131 1,500 -590 Descending Chicago Center
Sun 10:28:37 PM 41.9650 -87.9408 88° East 111 128 900 -590 Descending Chicago Center
Sun 10:30:00 PM 41.9667 -87.9000 124° Southeast  Level FlightAware Approximate

Login

Don't have an account? Register now (free) for customized features, flight alerts, and more!